Terminal Aerodrome Forecast
Issued by NWS Wilmington, NC

Home | Current Version | Previous Version | Text Only | Print | Product List | Glossary On
Versions: 1 2 3 4 5 6 7 8 9 10 11 12
000
FTUS42 KILM 281720
TAFFLO
TAF
KFLO 281720Z 2818/2918 07006KT P6SM VCSH BKN040
     FM290000 04004KT 4SM SHRA OVC025
     FM290500 03007KT 4SM BR VCSH BKN008
     FM291300 06008KT 6SM -SHRA BR OVC015=

USA.gov is the U.S. government's official web portal to all federal, state and local government web resources and services.